• Join FlightAware (Why Join?)
  • Login
  • US Flag 
01:12AM EDT


 

Airport Tracker/Info


-or-


 

Live Flight TrackerFlight Track Log ✈ GJS6221 ✈ 24-Apr-2013 ✈ KLGA - KBTV

Flight Track Log - Related Links

Times and Time Zones

All times are in EDT time to prevent confusion due to time zone crossing. See the GJS6221 flight status page for this flight to view local times or setup timezone preferences in your user account.

Time Position Orientation Groundspeed Altitude Reporting Facility
EDT Latitude Longitude Course Direction KTS MPH feet Rate Location/Type
12:12PM 40.7667 -73.8333 90° East 163 188 1,300  Level New York TRACON
12:13PM 40.7667 -73.7667 90° East 230 265 3,300 2,520 Climbing New York TRACON
12:14PM 40.8333 -73.7333 21° North 246 283 6,400 2,640 Climbing New York TRACON
12:15PM 40.9000 -73.6833 30° Northeast 294 338 8,600 2,340 Climbing New York TRACON
12:16PM 40.9833 -73.6333 24° Northeast 306 352 11,100 2,040 Climbing New York TRACON
12:17PM 41.0667 -73.5833 24° Northeast 374 430 12,900 1,800 Climbing New York TRACON
12:18PM 41.1500 -73.5167 31° Northeast 377 434 14,800 2,100 Climbing New York TRACON
12:19PM 41.2500 -73.4667 21° North 390 449 16,900 1,980 Climbing New York TRACON
12:20PM 41.3500 -73.4000 27° Northeast 402 463 18,800 1,860 Climbing New York TRACON
12:21PM 41.4500 -73.3333 27° Northeast 413 475 20,700 1,800 Climbing New York TRACON
12:22PM 41.5667 -73.3167 North 410 472 22,400 1,800 Climbing New York TRACON
12:23PM 41.6833 -73.3333 354° North 415 478 24,300 1,500 Climbing New York TRACON
12:24PM 41.8000 -73.3333 360° North 421 484 25,400 1,140 Climbing New York TRACON
12:25PM 41.9167 -73.3333 360° North 434 499 26,600 780 Climbing New York TRACON
12:26PM 42.0406 -73.3347 360° North 427 491 27,000 180 Climbing Boston Center
12:27PM 42.1572 -73.3364 359° North 427 491 27,000  Level Boston Center
12:28PM 42.2781 -73.3381 359° North 427 491 27,000  Level Boston Center
12:29PM 42.3864 -73.3311 North 427 491 27,000  Level Boston Center
12:30PM 42.5053 -73.3328 359° North 422 486 27,000  Level Boston Center
12:31PM 42.6386 -73.3461 356° North 422 486 27,000  Level Boston Center
12:32PM 42.7614 -73.3450 360° North 428 493 27,000  Level Boston Center
12:33PM 42.8867 -73.3469 359° North 433 498 27,000  Level Boston Center
12:34PM 43.0117 -73.3431 North 443 510 27,000 -720 Level Boston Center
12:35PM 43.1306 -73.3306 North 437 503 25,600 -1,500 Descending Boston Center
12:36PM 43.2514 -73.3153 North 431 496 24,100 -900 Descending Boston Center
12:37PM 43.3683 -73.2997 North 431 496 23,900 -1,200 Descending Boston Center
12:38PM 43.4853 -73.2842 North 418 481 21,800 -2,400 Descending Boston Center
12:39PM 43.5978 -73.2686 North 418 481 19,100 -2,640 Descending Boston Center
12:40PM 43.6978 -73.2586 North 413 475 16,600 -2,460 Descending Boston Center
12:41PM 43.8000 -73.2425 North 385 443 14,200 -2,580 Descending Boston Center
12:42PM 43.9106 -73.2297 North 365 420 11,500 -1,800 Descending Boston Center
12:43PM 44.0042 -73.2483 352° North 343 395 10,600 -1,320 Descending Boston Center
12:44PM 44.0856 -73.2639 352° North 308 354 8,900 -1,800 Descending Boston Center
12:45PM 44.1644 -73.2794 352° North 288 331 7,100 -1,800 Descending Boston Center
12:46PM 44.2456 -73.2950 352° North 288 331 5,300 -1,680 Descending Boston Center
12:47PM 44.3058 -73.3075 352° North 283 326 3,800 -1,140 Descending Boston Center
12:48PM 44.3892 -73.3203 354° North 263 303 3,100 -480 Descending Boston Center
12:49PM 44.4456 -73.3067 10° North 219 252 2,900 -540 Descending Boston Center
12:50PM 44.4958 -73.2811 20° North 192 221 2,100 -660 Descending Boston Center
12:51PM 44.5128 -73.2289 66° East 142 163 1,600 -600 Descending Boston Center
12:52PM 44.4944 -73.1881 122° Southeast 116 133 900 -600 Descending Boston Center
12:53PM 44.4819 -73.1528 116° Southeast 116 133 400 -300 Descending Boston Center
12:54PM 44.4656 -73.1439 159° South 98 113 400  Level Boston Center